Time;durP1;ratioP1;P1;durP2;ratioP2;P2;SDS_P1;SDS_P2;PMS_P1;PMS_P2;Temp;Humidity;BMP_temperature;BMP_pressure;BME280_temperature;BME280_humidity;BME280_pressure;Samples;Min_cycle;Max_cycle;Signal;HPM_P1;HPM_P2
2023/10/26 00:01:29;;;;;;;11.57;10.40;;;;;;;9.67;100.00;99618.44;5069776;28;20414;-35
2023/10/26 00:03:54;;;;;;;11.77;10.37;;;;;;;9.62;100.00;99625.69;5069667;28;20437;-35
2023/10/26 00:06:20;;;;;;;12.53;9.93;;;;;;;9.62;100.00;99615.69;5069924;28;20361;-35
2023/10/26 00:08:45;;;;;;;11.38;10.40;;;;;;;9.64;100.00;99618.94;5061415;28;20032;-35
2023/10/26 00:11:10;;;;;;;11.13;10.10;;;;;;;9.63;100.00;99621.91;5056360;28;20064;-35
2023/10/26 00:13:36;;;;;;;11.07;10.07;;;;;;;9.63;100.00;99632.69;5056257;28;20029;-35
2023/10/26 00:16:01;;;;;;;10.57;9.57;;;;;;;9.58;100.00;99636.16;5056185;28;20108;-35
2023/10/26 00:18:26;;;;;;;10.73;9.63;;;;;;;9.48;100.00;99634.16;5056211;28;20025;-35
2023/10/26 00:20:59;;;;;;;10.93;9.83;;;;;;;9.54;100.00;99646.63;5056442;28;20032;-35
2023/10/26 00:23:24;;;;;;;10.73;9.73;;;;;;;9.45;100.00;99634.66;5056059;28;20322;-35
2023/10/26 00:25:50;;;;;;;9.75;8.85;;;;;;;9.61;100.00;99659.09;5056340;28;20025;-35
2023/10/26 00:28:15;;;;;;;9.70;8.50;;;;;;;9.62;100.00;99664.28;5055990;28;20024;-35
2023/10/26 00:30:40;;;;;;;11.20;10.20;;;;;;;9.50;100.00;99648.22;5056049;28;20033;-35
2023/10/26 00:33:06;;;;;;;9.90;9.10;;;;;;;9.51;100.00;99649.84;5056427;28;20031;-35
2023/10/26 00:35:31;;;;;;;11.83;10.63;;;;;;;9.54;100.00;99657.44;5056178;28;20727;-35
2023/10/26 00:37:56;;;;;;;9.73;8.73;;;;;;;9.58;100.00;99662.34;5055862;28;20083;-35
2023/10/26 00:40:22;;;;;;;10.75;9.73;;;;;;;9.57;100.00;99655.31;5056339;28;20025;-35
2023/10/26 00:42:47;;;;;;;10.93;9.83;;;;;;;9.46;100.00;99640.88;5055718;28;20025;-35
2023/10/26 00:45:12;;;;;;;10.20;9.30;;;;;;;9.60;100.00;99669.09;5055715;28;20368;-35
2023/10/26 00:47:38;;;;;;;10.70;9.70;;;;;;;9.51;100.00;99657.94;5055647;28;20032;-35
2023/10/26 00:50:06;;;;;;;10.77;9.70;;;;;;;9.58;100.00;99676.66;5056190;28;20051;-35
2023/10/26 00:52:32;;;;;;;11.38;10.15;;;;;;;9.58;100.00;99673.13;5055502;28;20027;-35
2023/10/26 00:54:58;;;;;;;10.20;9.30;;;;;;;9.58;100.00;99673.13;5055523;28;20013;-35
2023/10/26 00:57:25;;;;;;;11.03;10.03;;;;;;;9.53;100.00;99672.00;5056147;28;20098;-35
2023/10/26 00:59:51;;;;;;;11.30;10.20;;;;;;;9.57;100.00;99675.03;5055205;28;20107;-35
2023/10/26 01:02:18;;;;;;;;;;;;;;;9.63;100.00;99686.69;5055779;28;20021;-35
2023/10/26 01:04:44;;;;;;;10.37;9.43;;;;;;;9.57;100.00;99676.91;5056239;28;19904;-35
2023/10/26 01:07:10;;;;;;;11.45;10.35;;;;;;;9.52;100.00;99678.47;5055830;28;20360;-35
2023/10/26 01:09:35;;;;;;;;;;;;;;;9.62;100.00;99690.47;5055683;28;20028;-35
2023/10/26 01:12:01;;;;;;;12.00;10.70;;;;;;;9.45;100.00;99663.53;5056063;28;19909;-35
2023/10/26 01:14:27;;;;;;;11.88;10.73;;;;;;;9.53;100.00;99687.38;5055101;28;20043;-35
2023/10/26 01:16:54;;;;;;;12.77;11.68;;;;;;;9.46;100.00;99686.75;5055092;28;20025;-35
2023/10/26 01:19:19;;;;;;;11.93;10.82;;;;;;;9.51;100.00;99700.28;5054587;28;20021;-35
2023/10/26 01:21:52;;;;;;;12.60;11.37;;;;;;;9.50;100.00;99698.66;5054708;28;20074;-35
2023/10/26 01:24:18;;;;;;;12.00;10.90;;;;;;;9.42;100.00;99688.31;5055013;28;20021;-35
2023/10/26 01:26:43;;;;;;;13.25;12.05;;;;;;;9.44;100.00;99691.59;5054940;28;20032;-35
2023/10/26 01:29:09;;;;;;;12.32;11.23;;;;;;;9.38;100.00;99679.09;5054579;28;20023;-35
2023/10/26 01:31:34;;;;;;;15.43;13.15;;;;;;;9.32;100.00;99677.38;5054898;28;20028;-35
2023/10/26 01:33:59;;;;;;;12.68;11.55;;;;;;;9.38;100.00;99695.28;5055641;28;20021;-35
2023/10/26 01:36:25;;;;;;;12.80;11.50;;;;;;;9.39;100.00;99696.91;5054430;28;20024;-35
2023/10/26 01:38:51;;;;;;;13.10;11.90;;;;;;;9.29;100.00;99698.41;5054660;28;20036;-35
2023/10/26 01:41:16;;;;;;;9.57;8.75;;;;;;;9.25;100.00;99691.06;5054979;28;20033;-35
2023/10/26 01:43:41;;;;;;;11.23;10.13;;;;;;;9.24;100.00;99692.16;5054666;28;20028;-35
2023/10/26 01:46:07;;;;;;;12.97;11.80;;;;;;;9.18;100.00;99685.06;5054888;28;20025;-35
2023/10/26 01:48:32;;;;;;;13.20;11.93;;;;;;;9.12;100.00;99684.16;5054203;28;20096;-35
2023/10/26 01:50:57;;;;;;;13.13;11.83;;;;;;;9.01;100.00;99675.13;5054576;28;20321;-35
2023/10/26 01:53:24;;;;;;;12.80;11.68;;;;;;;9.04;100.00;99684.59;5054433;28;20350;-35
2023/10/26 01:55:50;;;;;;;12.27;11.13;;;;;;;8.87;100.00;99671.13;5054436;28;20025;-35
2023/10/26 01:58:15;;;;;;;10.63;9.73;;;;;;;8.96;100.00;99688.53;5054059;28;20097;-35
2023/10/26 02:00:41;;;;;;;12.93;11.63;;;;;;;8.89;100.00;99682.50;5054891;28;20294;-35
2023/10/26 02:03:06;;;;;;;14.25;12.57;;;;;;;8.87;100.00;99684.63;5054477;28;20349;-35
2023/10/26 02:05:32;;;;;;;13.70;12.37;;;;;;;8.86;100.00;99693.78;5053957;28;20028;-35
2023/10/26 02:07:57;;;;;;;9.30;8.43;;;;;;;8.90;100.00;99694.09;5053648;28;20337;-35
2023/10/26 02:10:29;;;;;;;12.17;10.97;;;;;;;8.83;100.00;99688.06;5054115;28;20056;-35
2023/10/26 02:12:55;;;;;;;12.77;11.63;;;;;;;8.80;100.00;99691.28;5054009;28;20029;-35
2023/10/26 02:15:20;;;;;;;13.80;12.30;;;;;;;8.82;100.00;99686.44;5054797;28;20489;-35
2023/10/26 02:17:46;;;;;;;12.37;11.27;;;;;;;8.77;100.00;99687.97;5054709;28;20052;-35
2023/10/26 02:20:11;;;;;;;13.70;12.40;;;;;;;8.68;100.00;99676.00;5054505;28;20017;-35
2023/10/26 02:22:36;;;;;;;14.03;12.73;;;;;;;8.73;100.00;99672.56;5053877;28;20104;-35
2023/10/26 02:25:02;;;;;;;14.67;13.17;;;;;;;8.72;100.00;99671.75;5054216;28;20049;-35
2023/10/26 02:27:27;;;;;;;12.33;11.23;;;;;;;8.72;100.00;99679.00;5054346;28;20029;-35
2023/10/26 02:29:52;;;;;;;13.13;11.43;;;;;;;8.66;100.00;99688.09;5053794;28;20373;-35
2023/10/26 02:32:18;;;;;;;12.60;11.40;;;;;;;8.62;100.00;99684.25;5053911;28;20025;-35
2023/10/26 02:34:43;;;;;;;11.50;10.30;;;;;;;8.62;100.00;99685.06;5054045;28;20155;-35
2023/10/26 02:37:09;;;;;;;11.93;10.82;;;;;;;8.60;100.00;99687.19;5053357;28;20099;-35
2023/10/26 02:39:34;;;;;;;12.23;11.10;;;;;;;8.54;100.00;99685.50;5053713;28;20075;-35
2023/10/26 02:41:59;;;;;;;13.50;12.13;;;;;;;8.46;100.00;99678.63;5054232;28;20067;-35
2023/10/26 02:44:25;;;;;;;11.48;10.48;;;;;;;8.51;100.00;99677.91;5053576;28;20826;-35
2023/10/26 02:46:50;;;;;;;13.07;11.85;;;;;;;8.34;100.00;99677.03;5053660;28;20033;-35
2023/10/26 02:49:16;;;;;;;12.60;11.30;;;;;;;8.23;100.00;99667.97;5053551;28;20369;-35
2023/10/26 02:51:41;;;;;;;11.65;10.45;;;;;;;8.35;100.00;99676.00;5053528;28;20028;-35
2023/10/26 02:54:06;;;;;;;11.70;9.17;;;;;;;8.32;100.00;99668.41;5053470;28;20016;-35
2023/10/26 02:56:32;;;;;;;10.87;9.87;;;;;;;8.27;100.00;99663.75;5053681;28;20058;-35
2023/10/26 02:58:57;;;;;;;10.47;9.43;;;;;;;8.26;100.00;99667.50;5053257;28;20433;-35
2023/10/26 03:01:22;;;;;;;9.53;8.63;;;;;;;8.36;100.00;99683.00;5053490;28;20024;-35
2023/10/26 03:03:47;;;;;;;12.60;11.13;;;;;;;8.31;100.00;99689.13;5052236;28;20361;-35
2023/10/26 03:06:13;;;;;;;13.17;11.87;;;;;;;8.28;100.00;99692.31;5053418;28;20036;-35
2023/10/26 03:08:38;;;;;;;11.83;10.80;;;;;;;8.14;100.00;99677.50;5053123;28;20479;-35
2023/10/26 03:11:03;;;;;;;10.80;9.70;;;;;;;8.19;100.00;99694.56;5053348;28;20021;-35
2023/10/26 03:13:29;;;;;;;11.53;10.50;;;;;;;8.13;100.00;99678.56;5053351;28;20063;-35
2023/10/26 03:15:54;;;;;;;11.77;10.57;;;;;;;8.17;100.00;99675.16;5054139;28;20028;-35
2023/10/26 03:18:20;;;;;;;12.18;10.98;;;;;;;8.11;100.00;99664.56;5053264;28;20426;-35
2023/10/26 03:20:45;;;;;;;11.10;10.00;;;;;;;8.12;100.00;99675.06;5053294;28;20373;-35
2023/10/26 03:23:11;;;;;;;10.13;9.00;;;;;;;8.11;100.00;99670.75;5052992;28;20354;-35
2023/10/26 03:25:36;;;;;;;12.20;10.98;;;;;;;8.09;100.00;99678.25;5053517;28;20039;-35
2023/10/26 03:28:02;;;;;;;12.57;11.33;;;;;;;8.04;100.00;99683.53;5053540;28;20033;-35
2023/10/26 03:30:27;;;;;;;12.20;11.07;;;;;;;8.04;100.00;99680.84;5053755;28;20056;-35
2023/10/26 03:32:53;;;;;;;11.35;10.35;;;;;;;8.00;100.00;99683.22;5053113;28;20350;-35
2023/10/26 03:35:19;;;;;;;11.30;10.18;;;;;;;7.92;100.00;99683.59;5053433;28;20040;-35
2023/10/26 03:37:45;;;;;;;11.65;10.50;;;;;;;7.85;100.00;99677.53;5053497;28;20437;-35
2023/10/26 03:40:11;;;;;;;11.30;9.75;;;;;;;7.74;100.00;99668.47;5052830;28;20021;-35
2023/10/26 03:42:36;;;;;;;10.18;9.23;;;;;;;7.78;100.00;99668.81;5051775;28;20025;-35
2023/10/26 03:45:02;;;;;;;12.03;10.90;;;;;;;7.80;100.00;99685.53;5056825;28;20032;-35
2023/10/26 03:47:27;;;;;;;13.70;10.77;;;;;;;7.67;100.00;99667.00;5056460;28;20035;-35
2023/10/26 03:49:53;;;;;;;10.97;9.97;;;;;;;7.59;100.00;99672.75;5056751;28;20029;-35
2023/10/26 03:52:21;;;;;;;11.03;10.03;;;;;;;7.70;100.00;99679.94;5056423;28;20025;-35
2023/10/26 03:54:47;;;;;;;11.40;10.40;;;;;;;7.62;100.00;99666.91;5056931;28;20056;-35
2023/10/26 03:57:13;;;;;;;11.90;10.73;;;;;;;7.60;100.00;99671.69;5056914;28;20136;-35
2023/10/26 03:59:38;;;;;;;10.90;9.85;;;;;;;7.60;100.00;99666.31;5056551;28;20110;-35
2023/10/26 04:02:04;;;;;;;10.75;9.65;;;;;;;7.54;100.00;99664.59;5056582;28;20035;-35
2023/10/26 04:04:30;;;;;;;11.45;10.45;;;;;;;7.56;100.00;99659.78;5057004;28;20025;-35
2023/10/26 04:06:55;;;;;;;11.90;10.70;;;;;;;7.45;100.00;99632.69;5056474;28;20060;-35
2023/10/26 04:09:20;;;;;;;10.90;9.87;;;;;;;7.58;100.00;99655.00;5056460;28;20256;-35
2023/10/26 04:11:46;;;;;;;10.97;9.97;;;;;;;7.62;100.00;99662.34;5056689;28;20097;-35
2023/10/26 04:14:11;;;;;;;12.43;10.13;;;;;;;7.65;100.00;99661.84;5056838;28;20021;-35
2023/10/26 04:16:37;;;;;;;19.60;12.43;;;;;;;7.66;100.00;99652.72;5056246;28;20033;-35
2023/10/26 04:19:02;;;;;;;15.57;12.10;;;;;;;7.57;100.00;99640.72;5056167;28;20270;-35
2023/10/26 04:21:28;;;;;;;21.40;12.80;;;;;;;7.68;100.00;99644.41;5056789;28;20017;-35
2023/10/26 04:23:53;;;;;;;21.90;11.50;;;;;;;7.68;100.00;99641.72;5055870;28;20062;-35
2023/10/26 04:26:18;;;;;;;20.90;11.23;;;;;;;7.73;100.00;99647.19;5056106;28;20305;-35
2023/10/26 04:28:44;;;;;;;46.03;12.53;;;;;;;7.76;100.00;99646.72;5056491;28;20329;-35
2023/10/26 04:31:09;;;;;;;36.47;11.93;;;;;;;7.79;100.00;99651.59;5056868;28;20021;-35
2023/10/26 04:33:35;;;;;;;52.23;12.80;;;;;;;7.83;100.00;99657.31;5056431;28;20024;-35
2023/10/26 04:36:00;;;;;;;64.35;13.30;;;;;;;7.80;100.00;99655.09;5056192;28;20024;-35
2023/10/26 04:38:26;;;;;;;67.95;12.05;;;;;;;7.79;100.00;99651.59;5056040;28;20033;-35
2023/10/26 04:40:52;;;;;;;38.25;10.70;;;;;;;7.80;100.00;99637.09;5056077;28;20460;-35
2023/10/26 04:43:17;;;;;;;56.63;11.18;;;;;;;7.80;100.00;99642.47;5056269;28;20016;-35
2023/10/26 04:45:42;;;;;;;57.70;9.93;;;;;;;7.78;100.00;99638.41;5056001;28;20450;-35
2023/10/26 04:48:08;;;;;;;25.87;9.83;;;;;;;7.77;100.00;99648.34;5055403;28;20032;-35
2023/10/26 04:50:33;;;;;;;23.37;8.53;;;;;;;7.70;100.00;99639.59;5055919;28;20091;-35
2023/10/26 04:52:59;;;;;;;17.40;7.93;;;;;;;7.77;100.00;99651.03;5055319;28;20025;-35
2023/10/26 04:55:30;;;;;;;26.27;8.50;;;;;;;7.67;100.00;99635.53;5055725;28;20019;-35
2023/10/26 04:57:55;;;;;;;36.40;9.20;;;;;;;7.72;100.00;99640.19;5055271;28;20049;-35
2023/10/26 05:00:20;;;;;;;14.75;8.15;;;;;;;7.68;100.00;99642.53;5055641;28;20040;-35
2023/10/26 05:02:46;;;;;;;42.27;8.53;;;;;;;7.63;100.00;99644.31;5055078;28;20057;-35
2023/10/26 05:05:11;;;;;;;13.17;7.17;;;;;;;7.64;100.00;99635.19;5054598;28;20160;-35
2023/10/26 05:07:37;;;;;;;29.77;7.77;;;;;;;7.62;100.00;99643.50;5054994;28;20025;-35
2023/10/26 05:10:05;;;;;;;22.07;7.87;;;;;;;7.63;100.00;99652.38;5054980;28;20480;-35
2023/10/26 05:12:31;;;;;;;25.08;7.88;;;;;;;7.57;100.00;99653.34;5054599;28;20032;-36
2023/10/26 05:14:56;;;;;;;36.03;8.02;;;;;;;7.48;100.00;99651.03;5055496;28;20024;-34
2023/10/26 05:17:22;;;;;;;26.85;8.18;;;;;;;7.44;100.00;99649.88;5055301;28;20016;-34
2023/10/26 05:19:47;;;;;;;22.60;7.25;;;;;;;7.37;100.00;99637.63;5055051;28;20036;-34
2023/10/26 05:22:13;;;;;;;22.85;7.88;;;;;;;7.48;100.00;99644.84;5054978;28;20036;-34
2023/10/26 05:24:39;;;;;;;21.88;8.25;;;;;;;7.45;100.00;99640.75;5054579;28;20068;-34
2023/10/26 05:27:04;;;;;;;18.45;7.50;;;;;;;7.42;100.00;99645.81;5055727;28;20028;-35
2023/10/26 05:29:30;;;;;;;30.80;7.97;;;;;;;7.38;100.00;99648.16;5055082;28;20472;-35
2023/10/26 05:31:55;;;;;;;22.65;7.15;;;;;;;7.43;100.00;99645.56;5054550;28;20454;-35
2023/10/26 05:34:24;;;;;;;27.93;7.80;;;;;;;7.41;100.00;99644.97;5054823;28;20035;-35
2023/10/26 05:36:49;;;;;;;52.03;7.75;;;;;;;7.33;100.00;99631.91;5055235;28;20026;-35
2023/10/26 05:39:15;;;;;;;58.87;8.23;;;;;;;7.37;100.00;99643.00;5054691;28;20464;-35
2023/10/26 05:41:40;;;;;;;16.17;6.97;;;;;;;7.41;100.00;99641.47;5054957;28;20484;-35
2023/10/26 05:44:06;;;;;;;16.67;6.85;;;;;;;7.42;100.00;99651.19;5054616;28;20437;-35
2023/10/26 05:46:32;;;;;;;22.17;7.50;;;;;;;7.39;100.00;99649.78;5055406;28;20057;-35
2023/10/26 05:48:57;;;;;;;39.20;8.13;;;;;;;7.28;100.00;99629.13;5054471;28;20272;-35
2023/10/26 05:51:22;;;;;;;51.27;8.80;;;;;;;7.21;100.00;99617.69;5055313;28;20102;-35
2023/10/26 05:53:48;;;;;;;69.87;9.57;;;;;;;7.27;100.00;99637.41;5054141;28;20021;-35
2023/10/26 05:56:13;;;;;;;51.23;8.87;;;;;;;7.20;100.00;99622.25;5054320;28;20021;-35
2023/10/26 05:58:39;;;;;;;24.13;7.00;;;;;;;7.47;100.00;99641.34;5054849;28;20476;-35
2023/10/26 06:01:04;;;;;;;61.40;9.70;;;;;;;7.44;100.00;99641.00;5054413;28;20255;-35
2023/10/26 06:03:30;;;;;;;72.07;9.88;;;;;;;7.43;100.00;99634.81;5053961;28;20028;-35
2023/10/26 06:06:00;;;;;;;97.03;10.68;;;;;;;7.42;100.00;99633.19;5053969;28;20062;-35
2023/10/26 06:08:25;;;;;;;126.32;11.52;;;;;;;7.36;100.00;99630.59;5053815;28;20457;-35
2023/10/26 06:10:51;;;;;;;93.53;11.05;;;;;;;7.31;100.00;99617.06;5054920;28;20021;-35
2023/10/26 06:13:16;;;;;;;67.72;9.30;;;;;;;7.38;100.00;99620.44;5054027;28;20361;-35
2023/10/26 06:15:42;;;;;;;79.37;9.83;;;;;;;7.32;100.00;99630.28;5053813;28;20083;-35
2023/10/26 06:18:07;;;;;;;44.47;8.97;;;;;;;7.36;100.00;99630.59;5053869;28;20457;-35
2023/10/26 06:20:32;;;;;;;45.63;9.33;;;;;;;7.36;100.00;99634.13;5054281;28;20048;-35
2023/10/26 06:22:58;;;;;;;26.35;7.53;;;;;;;7.44;100.00;99632.94;5053985;28;20017;-35
2023/10/26 06:25:25;;;;;;;97.53;11.73;;;;;;;7.35;100.00;99629.78;5053538;28;20021;-35
2023/10/26 06:27:50;;;;;;;91.07;11.48;;;;;;;7.25;100.00;99623.41;5053779;28;20029;-35
2023/10/26 06:30:16;;;;;;;33.30;7.53;;;;;;;7.38;100.00;99623.94;5054420;28;20462;-35
2023/10/26 06:32:42;;;;;;;76.70;10.25;;;;;;;7.33;100.00;99631.09;5054542;28;20021;-35
2023/10/26 06:35:08;;;;;;;39.17;8.75;;;;;;;7.42;100.00;99637.75;5054011;28;20025;-35
2023/10/26 06:37:33;;;;;;;71.28;10.35;;;;;;;7.42;100.00;99633.19;5054135;28;20020;-35
2023/10/26 06:39:59;;;;;;;51.00;9.50;;;;;;;7.41;100.00;99628.81;5053512;28;20080;-35
2023/10/26 06:42:24;;;;;;;57.10;9.73;;;;;;;7.39;100.00;99630.16;5053642;28;20025;-35
2023/10/26 06:44:50;;;;;;;50.78;10.13;;;;;;;7.43;100.00;99634.00;5054116;28;20256;-35
2023/10/26 06:47:15;;;;;;;36.55;8.40;;;;;;;7.39;100.00;99627.47;5053547;28;20029;-35
2023/10/26 06:49:44;;;;;;;49.47;8.80;;;;;;;7.40;100.00;99623.69;5053337;28;20079;-35
2023/10/26 06:52:09;;;;;;;45.42;8.93;;;;;;;7.47;100.00;99640.53;5054307;28;20021;-35
2023/10/26 06:54:34;;;;;;;54.83;10.82;;;;;;;7.44;100.00;99641.00;5053203;28;20043;-35
2023/10/26 06:57:00;;;;;;;49.37;9.67;;;;;;;7.45;100.00;99631.88;5053544;28;20049;-35
2023/10/26 06:59:25;;;;;;;40.60;9.53;;;;;;;7.48;100.00;99634.09;5053521;28;20528;-34
2023/10/26 07:01:51;;;;;;;72.23;11.60;;;;;;;7.44;100.00;99636.44;5053153;28;20027;-34
2023/10/26 07:04:16;;;;;;;32.10;7.97;;;;;;;7.53;100.00;99639.56;5053616;28;20112;-34
2023/10/26 07:06:41;;;;;;;64.25;10.77;;;;;;;7.46;100.00;99642.38;5053383;28;20456;-34
2023/10/26 07:09:07;;;;;;;42.67;9.97;;;;;;;7.52;100.00;99637.13;5053007;28;20059;-34
2023/10/26 07:11:32;;;;;;;53.13;10.27;;;;;;;7.47;100.00;99638.66;5053666;28;20044;-34
2023/10/26 07:13:58;;;;;;;61.63;12.30;;;;;;;7.42;100.00;99619.72;5053286;28;20048;-35
2023/10/26 07:16:24;;;;;;;51.67;11.02;;;;;;;7.40;100.00;99623.69;5053458;28;20024;-35
2023/10/26 07:18:50;;;;;;;42.67;10.65;;;;;;;7.47;100.00;99629.78;5055006;28;20021;-35
2023/10/26 07:21:16;;;;;;;28.02;10.10;;;;;;;7.46;100.00;99626.25;5057332;28;20108;-35
2023/10/26 07:23:41;;;;;;;70.68;12.02;;;;;;;7.44;100.00;99622.16;5056715;28;20025;-35
2023/10/26 07:26:07;;;;;;;38.60;9.85;;;;;;;7.45;100.00;99621.09;5057665;28;20103;-35
2023/10/26 07:28:32;;;;;;;33.60;9.30;;;;;;;7.55;100.00;99633.94;5057490;28;20043;-35
2023/10/26 07:30:58;;;;;;;49.07;10.70;;;;;;;7.58;100.00;99628.09;5057995;28;20327;-35
2023/10/26 07:33:23;;;;;;;36.40;9.82;;;;;;;7.63;100.00;99625.47;5057388;28;20136;-38
2023/10/26 07:35:51;;;;;;;29.20;9.70;;;;;;;7.75;100.00;99628.91;5057372;28;20068;-35
2023/10/26 07:38:17;;;;;;;28.63;8.88;;;;;;;7.74;100.00;99609.28;5057090;28;20115;-35
2023/10/26 07:40:49;;;;;;;88.40;10.40;;;;;;;7.75;100.00;99618.97;5057752;28;20104;-35
2023/10/26 07:43:14;;;;;;;41.25;9.48;;;;;;;7.80;100.00;99612.84;5056603;28;20048;-35
2023/10/26 07:45:39;;;;;;;66.27;10.30;;;;;;;7.80;100.00;99615.56;5057468;28;20029;-35
2023/10/26 07:48:05;;;;;;;37.63;9.07;;;;;;;7.82;100.00;99613.44;5056829;28;20104;-35
2023/10/26 07:50:30;;;;;;;61.97;9.97;;;;;;;7.77;100.00;99620.63;5056464;28;20331;-35
2023/10/26 07:52:56;;;;;;;43.37;8.83;;;;;;;7.79;100.00;99610.41;5056432;28;20275;-35
2023/10/26 07:55:21;;;;;;;38.00;8.80;;;;;;;7.78;100.00;99624.94;5057547;28;20025;-35
2023/10/26 07:57:46;;;;;;;35.70;9.00;;;;;;;7.86;100.00;99630.75;5057549;28;20076;-35
2023/10/26 08:00:13;;;;;;;76.53;10.77;;;;;;;7.79;100.00;99618.50;5056930;28;20045;-35
2023/10/26 08:02:38;;;;;;;;;;;;;;;8.03;100.00;99641.53;5056563;28;20024;-35
2023/10/26 08:05:04;;;;;;;25.90;7.57;;;;;;;8.00;100.00;99636.63;5056827;28;19904;-35
2023/10/26 08:07:29;;;;;;;82.50;10.60;;;;;;;7.95;100.00;99641.91;5057011;28;20075;-35
2023/10/26 08:09:55;;;;;;;57.15;9.27;;;;;;;7.95;100.00;99656.22;5056955;28;20462;-35
2023/10/26 08:12:20;;;;;;;42.97;8.10;;;;;;;7.95;100.00;99661.59;5056671;28;20021;-35
2023/10/26 08:14:45;;;;;;;47.77;9.27;;;;;;;7.89;100.00;99650.97;5056012;28;20259;-35
2023/10/26 08:17:11;;;;;;;18.93;7.63;;;;;;;7.96;100.00;99652.47;5056241;28;20021;-35
2023/10/26 08:19:38;;;;;;;27.03;8.83;;;;;;;7.96;100.00;99647.06;5056297;28;20510;-35
2023/10/26 08:22:04;;;;;;;26.83;9.15;;;;;;;8.00;100.00;99647.38;5056188;28;20163;-35
2023/10/26 08:24:30;;;;;;;41.50;10.18;;;;;;;8.00;100.00;99656.31;5055879;28;20063;-35
2023/10/26 08:26:57;;;;;;;24.98;8.70;;;;;;;8.05;100.00;99643.97;5056363;28;20024;-35
2023/10/26 08:29:24;;;;;;;53.00;10.57;;;;;;;8.06;100.00;99654.50;5055537;28;20352;-35
2023/10/26 08:31:49;;;;;;;23.65;8.80;;;;;;;8.17;100.00;99666.25;5056319;28;20256;-35
2023/10/26 08:34:14;;;;;;;113.73;12.40;;;;;;;8.10;100.00;99654.81;5056022;28;20024;-35
2023/10/26 08:36:40;;;;;;;79.00;10.53;;;;;;;8.04;100.00;99661.19;5056494;28;20047;-35
2023/10/26 08:39:07;;;;;;;49.13;9.60;;;;;;;8.08;100.00;99655.06;5056164;28;20104;-35
2023/10/26 08:41:33;;;;;;;33.70;8.52;;;;;;;8.16;100.00;99661.94;5055803;28;20031;-35
2023/10/26 08:43:58;;;;;;;;;;;;;;;8.27;100.00;99658.34;5057051;28;20032;-35
2023/10/26 08:46:26;;;;;;;51.45;8.48;;;;;;;8.15;100.00;99666.53;5055746;28;20344;-35
2023/10/26 08:48:54;;;;;;;44.60;9.18;;;;;;;8.18;100.00;99667.91;5056269;28;20083;-35
2023/10/26 08:51:20;;;;;;;43.70;9.25;;;;;;;8.19;100.00;99667.63;5056211;28;20342;-35
2023/10/26 08:53:46;;;;;;;;;;;;;;;8.32;100.00;99668.41;5056556;28;20017;-35
2023/10/26 08:56:15;;;;;;;86.35;10.23;;;;;;;8.07;100.00;99660.72;5055063;28;20325;-35
2023/10/26 08:58:41;;;;;;;94.20;11.15;;;;;;;7.92;100.00;99656.69;5055788;28;20127;-35
2023/10/26 09:01:07;;;;;;;71.10;10.88;;;;;;;7.88;100.00;99666.31;5055476;28;20120;-35
2023/10/26 09:03:35;;;;;;;105.88;10.98;;;;;;;7.91;100.00;99665.03;5055397;28;20108;-35
2023/10/26 09:06:01;;;;;;;55.75;9.88;;;;;;;7.84;100.00;99650.88;5055720;28;20078;-35
2023/10/26 09:08:28;;;;;;;64.83;11.37;;;;;;;8.02;100.00;99657.94;5055376;28;20025;-35
2023/10/26 09:10:54;;;;;;;87.55;11.20;;;;;;;7.95;100.00;99653.53;5055793;28;20021;-35
2023/10/26 09:13:28;;;;;;;113.70;12.27;;;;;;;7.99;100.00;99646.56;5055299;28;20021;-34
2023/10/26 09:15:57;;;;;;;40.63;10.60;;;;;;;8.03;100.00;99635.31;5054922;28;20469;-34
2023/10/26 09:18:28;;;;;;;88.97;11.55;;;;;;;8.15;100.00;99657.59;5054724;28;20457;-34
2023/10/26 09:21:03;;;;;;;58.75;11.50;;;;;;;8.24;100.00;99640.78;5055359;28;20025;-35
2023/10/26 09:23:30;;;;;;;46.00;11.48;;;;;;;8.39;100.00;99648.31;5054734;28;20017;-34
2023/10/26 09:26:00;;;;;;;50.75;10.68;;;;;;;8.21;100.00;99605.47;5055242;28;20457;-35
2023/10/26 09:28:26;;;;;;;66.40;11.52;;;;;;;8.36;100.00;99629.97;5055487;28;20396;-35
2023/10/26 09:30:59;;;;;;;35.40;10.80;;;;;;;8.44;100.00;99632.28;5054573;28;20029;-35
2023/10/26 09:33:26;;;;;;;87.40;12.73;;;;;;;8.43;100.00;99638.69;5055652;28;20110;-35
2023/10/26 09:35:52;;;;;;;42.78;10.30;;;;;;;8.51;100.00;99632.91;5055293;28;20449;-35
2023/10/26 09:38:32;;;;;;;;;;;;;;;8.57;100.00;99627.59;5055043;28;20056;-35
2023/10/26 09:40:57;;;;;;;39.40;11.18;;;;;;;8.47;100.00;99630.94;5054604;28;19962;-35
2023/10/26 09:43:23;;;;;;;39.05;12.07;;;;;;;8.50;100.00;99633.97;5054616;28;20032;-35
2023/10/26 09:45:48;;;;;;;38.83;12.07;;;;;;;8.54;100.00;99620.84;5055114;28;20025;-35
2023/10/26 09:48:14;;;;;;;55.27;14.00;;;;;;;8.61;100.00;99632.25;5054824;28;20047;-35
2023/10/26 09:50:40;;;;;;;35.37;14.07;;;;;;;8.66;100.00;99610.75;5054811;28;20264;-35
2023/10/26 09:53:06;;;;;;;30.20;12.57;;;;;;;8.76;100.00;99621.66;5054423;28;20021;-35
2023/10/26 09:55:32;;;;;;;;;;;;;;;8.91;100.00;99626.44;5055689;28;20031;-35
2023/10/26 09:58:07;;;;;;;25.15;12.50;;;;;;;8.81;100.00;99610.16;5055278;28;20015;-35
2023/10/26 10:00:34;;;;;;;39.28;13.65;;;;;;;8.91;100.00;99620.25;5054019;28;20025;-35
2023/10/26 10:03:16;;;;;;;28.00;12.77;;;;;;;9.00;100.00;99624.97;5053942;28;20024;-35
2023/10/26 10:05:43;;;;;;;33.30;12.90;;;;;;;8.99;100.00;99623.34;5054175;28;20056;-35
2023/10/26 10:08:09;;;;;;;20.75;12.32;;;;;;;9.02;100.00;99632.78;5054635;28;20449;-35
2023/10/26 10:10:35;;;;;;;;;;;;;;;9.11;100.00;99628.59;5054315;28;20021;-35
2023/10/26 10:13:01;;;;;;;24.40;11.50;;;;;;;9.05;100.00;99626.09;5054114;28;19916;-35
2023/10/26 10:15:45;;;;;;;21.92;13.88;;;;;;;9.07;100.00;99623.94;5054674;28;20051;-35
2023/10/26 10:18:10;;;;;;;18.20;12.77;;;;;;;9.11;100.00;99620.50;5054260;28;20028;-35
2023/10/26 10:20:38;;;;;;;30.05;13.50;;;;;;;9.01;100.00;99623.88;5054018;28;20094;-35
2023/10/26 10:23:04;;;;;;;20.33;14.02;;;;;;;9.03;100.00;99624.47;5053876;28;20024;-35
2023/10/26 10:25:51;;;;;;;17.85;12.48;;;;;;;9.09;100.00;99611.03;5054516;28;20020;-35
2023/10/26 10:28:18;;;;;;;24.63;13.32;;;;;;;8.89;100.00;99607.03;5054185;28;20475;-35
2023/10/26 10:31:10;;;;;;;18.00;13.18;;;;;;;8.98;100.00;99605.53;5053777;28;20058;-35
2023/10/26 10:33:39;;;;;;;13.80;12.07;;;;;;;9.01;100.00;99601.50;5052457;28;20119;-35
2023/10/26 10:36:05;;;;;;;13.73;12.27;;;;;;;9.09;100.00;99592.97;5054584;28;20028;-35
2023/10/26 10:38:31;;;;;;;;;;;;;;;9.22;100.00;99589.91;5053740;28;20025;-35
2023/10/26 10:41:00;;;;;;;14.80;12.70;;;;;;;8.98;100.00;99554.28;5053972;28;19909;-35
2023/10/26 10:43:43;;;;;;;21.83;17.05;;;;;;;9.07;100.00;99583.50;5054179;28;20271;-35
2023/10/26 10:46:12;;;;;;;22.48;17.75;;;;;;;9.13;100.00;99585.22;5054491;28;20020;-35
2023/10/26 10:48:56;;;;;;;22.25;17.80;;;;;;;9.20;100.00;99585.81;5053572;28;20341;-35
2023/10/26 10:51:26;;;;;;;20.73;17.67;;;;;;;9.12;100.00;99583.56;5054126;28;20342;-35
2023/10/26 10:53:52;;;;;;;23.42;18.13;;;;;;;9.14;100.00;99584.94;5053148;28;20449;-35
2023/10/26 10:56:17;;;;;;;26.60;17.98;;;;;;;9.12;100.00;99573.56;5053453;28;20040;-35
2023/10/26 10:58:43;;;;;;;27.42;18.55;;;;;;;9.03;100.00;99569.72;5053563;28;20047;-35
2023/10/26 11:01:08;;;;;;;27.85;18.98;;;;;;;9.03;100.00;99575.13;5053498;28;20029;-35
2023/10/26 11:03:34;;;;;;;25.13;18.53;;;;;;;9.12;100.00;99573.56;5052272;28;20033;-35
2023/10/26 11:05:59;;;;;;;23.80;17.15;;;;;;;9.06;100.00;99550.31;5054318;28;20422;-36
2023/10/26 11:08:25;;;;;;;20.63;16.00;;;;;;;9.24;100.00;99558.09;5053920;28;20326;-35
2023/10/26 11:10:51;;;;;;;20.15;15.77;;;;;;;9.32;100.00;99550.59;5053139;28;20380;-35
2023/10/26 11:13:21;;;;;;;17.77;14.65;;;;;;;9.44;100.00;99560.19;5053353;28;20095;-35
2023/10/26 11:15:46;;;;;;;15.30;13.68;;;;;;;9.39;100.00;99562.81;5053664;28;20097;-35
2023/10/26 11:18:12;;;;;;;16.23;13.53;;;;;;;9.42;100.00;99538.03;5053505;28;20449;-35